SND1 VNKT-ZULS
Flight info
| Callsign | SND1 |
|---|---|
| Flight time | 0h 55m |
| Altitude | 37100 |
| Route | IGRIS1D KIMTI B345 IKUBI IKU28A |
| Aircraft | A319/M-SDE3FGHIRWY/LB1 |
Departure
| Time | 2026-05-04 23:41 |
|---|---|
| Airport | Tribhuvan International Airport (VNKT) |
Arrival
| Time | 2026-05-05 00:36 |
|---|---|
| Airport | Lhasa Gonggar International Airport (ZULS) |
| Time | Latitude | Longitude | Altitude | Speed | Heading |
|---|---|---|---|---|---|
| 2026-05-04 23:14 | 27.70037 | 85.35848 | 4422 ft | 0 kts | 291° |
| 2026-05-04 23:32 | 27.70036 | 85.35849 | 4373 ft | 2 kts | 291° |
| 2026-05-04 23:32 | 27.70027 | 85.35876 | 4367 ft | 4 kts | 291° |
| 2026-05-04 23:32 | 27.70018 | 85.35903 | 4359 ft | 2 kts | 291° |
| 2026-05-04 23:33 | 27.70010 | 85.35929 | 4358 ft | 4 kts | 273° |
| 2026-05-04 23:33 | 27.70016 | 85.35956 | 4356 ft | 4 kts | 215° |
| 2026-05-04 23:33 | 27.70025 | 85.35962 | 4359 ft | 1 kts | 201° |
| 2026-05-04 23:33 | 27.70026 | 85.35962 | 4359 ft | 0 kts | 201° |
| 2026-05-04 23:35 | 27.70015 | 85.35958 | 4356 ft | 4 kts | 201° |
| 2026-05-04 23:35 | 27.69977 | 85.35940 | 4371 ft | 8 kts | 202° |
| 2026-05-04 23:36 | 27.69917 | 85.35944 | 4370 ft | 10 kts | 138° |
| 2026-05-04 23:36 | 27.69869 | 85.36000 | 4363 ft | 11 kts | 171° |
| 2026-05-04 23:36 | 27.69793 | 85.35973 | 4367 ft | 12 kts | 202° |
| 2026-05-04 23:36 | 27.69707 | 85.35934 | 4352 ft | 15 kts | 202° |
| 2026-05-04 23:37 | 27.69606 | 85.35888 | 4350 ft | 16 kts | 202° |
| 2026-05-04 23:37 | 27.69494 | 85.35837 | 4353 ft | 18 kts | 202° |
| 2026-05-04 23:37 | 27.69369 | 85.35780 | 4346 ft | 21 kts | 201° |
| 2026-05-04 23:37 | 27.69230 | 85.35717 | 4349 ft | 22 kts | 202° |
| 2026-05-04 23:38 | 27.69079 | 85.35649 | 4340 ft | 24 kts | 202° |
| 2026-05-04 23:38 | 27.68915 | 85.35575 | 4338 ft | 26 kts | 202° |
| 2026-05-04 23:38 | 27.68739 | 85.35495 | 4332 ft | 28 kts | 201° |
| 2026-05-04 23:38 | 27.68564 | 85.35416 | 4326 ft | 22 kts | 202° |
| 2026-05-04 23:39 | 27.68469 | 85.35358 | 4325 ft | 12 kts | 240° |
| 2026-05-04 23:39 | 27.68415 | 85.35318 | 4322 ft | 10 kts | 156° |
| 2026-05-04 23:39 | 27.68419 | 85.35351 | 4323 ft | 2 kts | 24° |
| 2026-05-04 23:39 | 27.68420 | 85.35352 | 4323 ft | 0 kts | 23° |
| 2026-05-04 23:40 | 27.68425 | 85.35354 | 4324 ft | 4 kts | 23° |
| 2026-05-04 23:40 | 27.68661 | 85.35461 | 4328 ft | 73 kts | 22° |
| 2026-05-04 23:40 | 27.69329 | 85.35764 | 4352 ft | 134 kts | 22° |
| 2026-05-04 23:40 | 27.70333 | 85.36215 | 4552 ft | 163 kts | 21° |
| 2026-05-04 23:41 | 27.71379 | 85.36697 | 5169 ft | 163 kts | 22° |
| 2026-05-04 23:41 | 27.72416 | 85.37243 | 5772 ft | 166 kts | 32° |
| 2026-05-04 23:41 | 27.73303 | 85.38125 | 6241 ft | 179 kts | 52° |
| 2026-05-04 23:41 | 27.73902 | 85.39433 | 6542 ft | 199 kts | 73° |
| 2026-05-04 23:42 | 27.74043 | 85.41060 | 6816 ft | 219 kts | 92° |
| 2026-05-04 23:42 | 27.73977 | 85.42862 | 7083 ft | 242 kts | 94° |
| 2026-05-04 23:42 | 27.73470 | 85.44731 | 7589 ft | 255 kts | 120° |
| 2026-05-04 23:42 | 27.72311 | 85.46238 | 8388 ft | 256 kts | 144° |
| 2026-05-04 23:43 | 27.70721 | 85.47156 | 9118 ft | 262 kts | 158° |
| 2026-05-04 23:43 | 27.68955 | 85.47989 | 9534 ft | 286 kts | 158° |
| 2026-05-04 23:43 | 27.67116 | 85.48967 | 10166 ft | 299 kts | 150° |
| 2026-05-04 23:43 | 27.65372 | 85.50413 | 10477 ft | 323 kts | 137° |
| 2026-05-04 23:44 | 27.63902 | 85.52404 | 10963 ft | 338 kts | 122° |
| 2026-05-04 23:44 | 27.62862 | 85.54809 | 11647 ft | 345 kts | 109° |
| 2026-05-04 23:44 | 27.62157 | 85.57433 | 12345 ft | 352 kts | 106° |
| 2026-05-04 23:44 | 27.61460 | 85.60072 | 13015 ft | 359 kts | 106° |
| 2026-05-04 23:45 | 27.60735 | 85.62800 | 13693 ft | 366 kts | 106° |
| 2026-05-04 23:45 | 27.59994 | 85.65577 | 14323 ft | 372 kts | 107° |
| 2026-05-04 23:45 | 27.59230 | 85.68382 | 14955 ft | 377 kts | 109° |
| 2026-05-04 23:45 | 27.58213 | 85.71138 | 15587 ft | 381 kts | 117° |
| 2026-05-04 23:46 | 27.57025 | 85.73822 | 16250 ft | 384 kts | 117° |
| 2026-05-04 23:46 | 27.55831 | 85.76527 | 16924 ft | 388 kts | 118° |
| 2026-05-04 23:46 | 27.54635 | 85.79240 | 17568 ft | 392 kts | 118° |
| 2026-05-04 23:46 | 27.53419 | 85.82003 | 18222 ft | 396 kts | 118° |
| 2026-05-04 23:47 | 27.52266 | 85.84836 | 18790 ft | 401 kts | 112° |
| 2026-05-04 23:47 | 27.51447 | 85.87864 | 19333 ft | 406 kts | 103° |
| 2026-05-04 23:47 | 27.51026 | 85.91031 | 19886 ft | 411 kts | 95° |
| 2026-05-04 23:47 | 27.50905 | 85.94260 | 20409 ft | 415 kts | 92° |
| 2026-05-04 23:48 | 27.50794 | 85.97535 | 20909 ft | 420 kts | 93° |
| 2026-05-04 23:48 | 27.50672 | 86.00843 | 21411 ft | 424 kts | 93° |
| 2026-05-04 23:48 | 27.50544 | 86.04170 | 21948 ft | 428 kts | 93° |
| 2026-05-04 23:48 | 27.50412 | 86.07537 | 22466 ft | 431 kts | 94° |
| 2026-05-04 23:49 | 27.50279 | 86.10925 | 22980 ft | 435 kts | 94° |
| 2026-05-04 23:49 | 27.50147 | 86.14349 | 23490 ft | 440 kts | 94° |
| 2026-05-04 23:49 | 27.50015 | 86.17803 | 23955 ft | 443 kts | 94° |
| 2026-05-04 23:49 | 27.49880 | 86.21293 | 24393 ft | 446 kts | 94° |
| 2026-05-04 23:50 | 27.49740 | 86.24795 | 24844 ft | 448 kts | 94° |
| 2026-05-04 23:50 | 27.49382 | 86.28280 | 25242 ft | 449 kts | 104° |
| 2026-05-04 23:50 | 27.48734 | 86.31683 | 25653 ft | 451 kts | 105° |
| 2026-05-04 23:50 | 27.48073 | 86.35138 | 26080 ft | 453 kts | 105° |
| 2026-05-04 23:51 | 27.47405 | 86.38620 | 26480 ft | 455 kts | 105° |
| 2026-05-04 23:51 | 27.46735 | 86.42108 | 26858 ft | 458 kts | 105° |
| 2026-05-04 23:51 | 27.46056 | 86.45624 | 27254 ft | 461 kts | 105° |
| 2026-05-04 23:51 | 27.45370 | 86.49162 | 27641 ft | 463 kts | 106° |
| 2026-05-04 23:52 | 27.44681 | 86.52714 | 28005 ft | 466 kts | 106° |
| 2026-05-04 23:52 | 27.43991 | 86.56295 | 28348 ft | 469 kts | 105° |
| 2026-05-04 23:52 | 27.43301 | 86.59889 | 28643 ft | 472 kts | 106° |
| 2026-05-04 23:52 | 27.42839 | 86.62283 | 28884 ft | 473 kts | 106° |
| 2026-05-04 23:53 | 27.41900 | 86.67139 | 29364 ft | 477 kts | 107° |
| 2026-05-04 23:53 | 27.41191 | 86.70799 | 29692 ft | 479 kts | 107° |
| 2026-05-04 23:53 | 27.40478 | 86.74466 | 30094 ft | 481 kts | 107° |
| 2026-05-04 23:53 | 27.40003 | 86.76902 | 30258 ft | 482 kts | 107° |
| 2026-05-04 23:54 | 27.39037 | 86.81858 | 30636 ft | 487 kts | 107° |
| 2026-05-04 23:54 | 27.38556 | 86.84332 | 30809 ft | 489 kts | 107° |
| 2026-05-04 23:54 | 27.37827 | 86.88076 | 31025 ft | 492 kts | 107° |
| 2026-05-04 23:54 | 27.37093 | 86.91843 | 31301 ft | 495 kts | 107° |
| 2026-05-04 23:55 | 27.36350 | 86.95639 | 31548 ft | 498 kts | 107° |
| 2026-05-04 23:55 | 27.35601 | 86.99450 | 31705 ft | 500 kts | 108° |
| 2026-05-04 23:55 | 27.34094 | 87.07096 | 32303 ft | 502 kts | 106° |
| 2026-05-04 23:56 | 27.33821 | 87.11050 | 32599 ft | 513 kts | 89° |
| 2026-05-04 23:56 | 27.34485 | 87.15004 | 32918 ft | 519 kts | 72° |
| 2026-05-04 23:56 | 27.36073 | 87.18662 | 33264 ft | 520 kts | 55° |
| 2026-05-04 23:56 | 27.38437 | 87.21716 | 33606 ft | 517 kts | 38° |
| 2026-05-04 23:57 | 27.41403 | 87.23955 | 33897 ft | 509 kts | 20° |
| 2026-05-04 23:57 | 27.44654 | 87.25495 | 34243 ft | 506 kts | 17° |
| 2026-05-04 23:57 | 27.47915 | 87.26987 | 34558 ft | 505 kts | 17° |
| 2026-05-04 23:57 | 27.51166 | 87.28480 | 34933 ft | 504 kts | 17° |
| 2026-05-04 23:58 | 27.54411 | 87.29973 | 35202 ft | 504 kts | 17° |
| 2026-05-04 23:58 | 27.57620 | 87.31448 | 35517 ft | 503 kts | 17° |
| 2026-05-04 23:58 | 27.60851 | 87.32938 | 35852 ft | 501 kts | 17° |
| 2026-05-04 23:58 | 27.64074 | 87.34427 | 36168 ft | 500 kts | 17° |
| 2026-05-04 23:59 | 27.67293 | 87.35914 | 36528 ft | 499 kts | 17° |
| 2026-05-04 23:59 | 27.70500 | 87.37395 | 36944 ft | 497 kts | 17° |
| 2026-05-04 23:59 | 27.73695 | 87.38875 | 37214 ft | 497 kts | 17° |
| 2026-05-05 00:00 | 27.80041 | 87.41857 | 37274 ft | 490 kts | 20° |
| 2026-05-05 00:00 | 27.85720 | 87.46187 | 37289 ft | 501 kts | 40° |
| 2026-05-05 00:01 | 27.90575 | 87.51888 | 37290 ft | 503 kts | 44° |
| 2026-05-05 00:01 | 27.95412 | 87.57618 | 37288 ft | 503 kts | 44° |
| 2026-05-05 00:02 | 28.00243 | 87.63337 | 37277 ft | 503 kts | 43° |
| 2026-05-05 00:02 | 28.05065 | 87.69067 | 37266 ft | 502 kts | 44° |
| 2026-05-05 00:03 | 28.09884 | 87.74805 | 37259 ft | 503 kts | 44° |
| 2026-05-05 00:03 | 28.14708 | 87.80543 | 37236 ft | 504 kts | 44° |
| 2026-05-05 00:04 | 28.19541 | 87.86302 | 37214 ft | 504 kts | 44° |
| 2026-05-05 00:04 | 28.24354 | 87.92060 | 37202 ft | 503 kts | 44° |
| 2026-05-05 00:05 | 28.29148 | 87.97790 | 37173 ft | 503 kts | 44° |
| 2026-05-05 00:05 | 28.33974 | 88.03568 | 37165 ft | 504 kts | 44° |
| 2026-05-05 00:06 | 28.38791 | 88.09351 | 37165 ft | 504 kts | 44° |
| 2026-05-05 00:06 | 28.43613 | 88.15143 | 37173 ft | 504 kts | 44° |
| 2026-05-05 00:07 | 28.48431 | 88.20933 | 37178 ft | 504 kts | 44° |
| 2026-05-05 00:07 | 28.53247 | 88.26734 | 37176 ft | 504 kts | 44° |
| 2026-05-05 00:08 | 28.58058 | 88.32537 | 37176 ft | 504 kts | 44° |
| 2026-05-05 00:08 | 28.62869 | 88.38358 | 37187 ft | 505 kts | 44° |
| 2026-05-05 00:09 | 28.67673 | 88.44174 | 37158 ft | 503 kts | 44° |
| 2026-05-05 00:09 | 28.72472 | 88.49983 | 37167 ft | 504 kts | 44° |
| 2026-05-05 00:10 | 28.77276 | 88.55819 | 37150 ft | 504 kts | 44° |
| 2026-05-05 00:10 | 28.82076 | 88.61660 | 37155 ft | 505 kts | 44° |
| 2026-05-05 00:11 | 28.86892 | 88.67520 | 37142 ft | 505 kts | 44° |
| 2026-05-05 00:11 | 28.91666 | 88.73330 | 37144 ft | 505 kts | 44° |
| 2026-05-05 00:12 | 28.96469 | 88.79193 | 37136 ft | 506 kts | 44° |
| 2026-05-05 00:12 | 29.01278 | 88.85068 | 37127 ft | 506 kts | 44° |
| 2026-05-05 00:13 | 29.06087 | 88.90953 | 37124 ft | 507 kts | 44° |
| 2026-05-05 00:13 | 29.10891 | 88.96847 | 37125 ft | 507 kts | 44° |
| 2026-05-05 00:14 | 29.15702 | 89.02764 | 37124 ft | 507 kts | 44° |
| 2026-05-05 00:14 | 29.20504 | 89.08660 | 37127 ft | 507 kts | 44° |
| 2026-05-05 00:15 | 29.25315 | 89.14568 | 37134 ft | 507 kts | 44° |
| 2026-05-05 00:15 | 29.30107 | 89.20516 | 37132 ft | 508 kts | 48° |
| 2026-05-05 00:15 | 29.32151 | 89.23814 | 37133 ft | 509 kts | 59° |
| 2026-05-05 00:16 | 29.33686 | 89.27410 | 37136 ft | 509 kts | 70° |
| 2026-05-05 00:16 | 29.35194 | 89.35271 | 37133 ft | 503 kts | 91° |
| 2026-05-05 00:17 | 29.35052 | 89.43248 | 37142 ft | 501 kts | 96° |
| 2026-05-05 00:17 | 29.34822 | 89.51235 | 37148 ft | 502 kts | 96° |
| 2026-05-05 00:17 | 29.34705 | 89.55238 | 36987 ft | 503 kts | 96° |
| 2026-05-05 00:18 | 29.34590 | 89.59245 | 36741 ft | 503 kts | 96° |
| 2026-05-05 00:18 | 29.34474 | 89.63253 | 36498 ft | 503 kts | 96° |
| 2026-05-05 00:18 | 29.34355 | 89.67256 | 36259 ft | 502 kts | 96° |
| 2026-05-05 00:18 | 29.34231 | 89.71252 | 36019 ft | 502 kts | 96° |
| 2026-05-05 00:19 | 29.34103 | 89.75251 | 35778 ft | 502 kts | 96° |
| 2026-05-05 00:19 | 29.33976 | 89.79251 | 35541 ft | 501 kts | 96° |
| 2026-05-05 00:19 | 29.33853 | 89.83248 | 35294 ft | 501 kts | 96° |
| 2026-05-05 00:19 | 29.33733 | 89.87209 | 34818 ft | 496 kts | 96° |
| 2026-05-05 00:20 | 29.33610 | 89.91169 | 34197 ft | 498 kts | 96° |
| 2026-05-05 00:20 | 29.33481 | 89.95140 | 33542 ft | 498 kts | 96° |
| 2026-05-05 00:20 | 29.33350 | 89.99091 | 32960 ft | 495 kts | 96° |
| 2026-05-05 00:20 | 29.33219 | 90.03020 | 32366 ft | 493 kts | 96° |
| 2026-05-05 00:21 | 29.33089 | 90.06930 | 31774 ft | 490 kts | 96° |
| 2026-05-05 00:21 | 29.32959 | 90.10830 | 31198 ft | 489 kts | 96° |
| 2026-05-05 00:21 | 29.32830 | 90.14718 | 30622 ft | 488 kts | 96° |
| 2026-05-05 00:21 | 29.32593 | 90.18589 | 30041 ft | 483 kts | 103° |
| 2026-05-05 00:22 | 29.31857 | 90.22297 | 29523 ft | 472 kts | 112° |
| 2026-05-05 00:22 | 29.30871 | 90.25856 | 29063 ft | 465 kts | 112° |
| 2026-05-05 00:22 | 29.29909 | 90.29362 | 28622 ft | 459 kts | 112° |
| 2026-05-05 00:22 | 29.28964 | 90.32837 | 28185 ft | 453 kts | 112° |
| 2026-05-05 00:23 | 29.28049 | 90.36214 | 27753 ft | 448 kts | 112° |
| 2026-05-05 00:23 | 29.27133 | 90.39591 | 27312 ft | 441 kts | 112° |
| 2026-05-05 00:23 | 29.26225 | 90.42923 | 26888 ft | 438 kts | 112° |
| 2026-05-05 00:23 | 29.25315 | 90.46241 | 26451 ft | 436 kts | 112° |
| 2026-05-05 00:24 | 29.24404 | 90.49545 | 25952 ft | 434 kts | 112° |
| 2026-05-05 00:24 | 29.23494 | 90.52829 | 25504 ft | 431 kts | 112° |
| 2026-05-05 00:24 | 29.22586 | 90.56103 | 25043 ft | 429 kts | 111° |
| 2026-05-05 00:24 | 29.21685 | 90.59356 | 24580 ft | 427 kts | 111° |
| 2026-05-05 00:25 | 29.20791 | 90.62587 | 24100 ft | 425 kts | 111° |
| 2026-05-05 00:25 | 29.19900 | 90.65808 | 23740 ft | 423 kts | 111° |
| 2026-05-05 00:25 | 29.19017 | 90.69000 | 23231 ft | 416 kts | 111° |
| 2026-05-05 00:25 | 29.18151 | 90.72126 | 22845 ft | 407 kts | 111° |
| 2026-05-05 00:26 | 29.17308 | 90.75172 | 22713 ft | 394 kts | 111° |
| 2026-05-05 00:26 | 29.16514 | 90.78133 | 22580 ft | 383 kts | 107° |
| 2026-05-05 00:26 | 29.16199 | 90.81105 | 22383 ft | 374 kts | 91° |
| 2026-05-05 00:26 | 29.16504 | 90.84033 | 21977 ft | 370 kts | 76° |
| 2026-05-05 00:27 | 29.17403 | 90.86756 | 21634 ft | 363 kts | 61° |
| 2026-05-05 00:27 | 29.18787 | 90.89125 | 21271 ft | 354 kts | 47° |
| 2026-05-05 00:27 | 29.20567 | 90.91027 | 20876 ft | 347 kts | 32° |
| 2026-05-05 00:27 | 29.22596 | 90.92364 | 20621 ft | 335 kts | 19° |
| 2026-05-05 00:28 | 29.24748 | 90.93182 | 20497 ft | 318 kts | 11° |
| 2026-05-05 00:28 | 29.26856 | 90.93835 | 20197 ft | 311 kts | 10° |
| 2026-05-05 00:28 | 29.28964 | 90.94116 | 19825 ft | 301 kts | 353° |
| 2026-05-05 00:28 | 29.30990 | 90.93709 | 19431 ft | 293 kts | 336° |
| 2026-05-05 00:29 | 29.32785 | 90.92679 | 19028 ft | 286 kts | 320° |
| 2026-05-05 00:29 | 29.34200 | 90.91172 | 18843 ft | 271 kts | 305° |
| 2026-05-05 00:29 | 29.35362 | 90.89541 | 18771 ft | 256 kts | 305° |
| 2026-05-05 00:29 | 29.36467 | 90.88022 | 18647 ft | 241 kts | 305° |
| 2026-05-05 00:30 | 29.37255 | 90.86432 | 18535 ft | 221 kts | 282° |
| 2026-05-05 00:30 | 29.37421 | 90.84761 | 18331 ft | 205 kts | 264° |
| 2026-05-05 00:30 | 29.37329 | 90.83143 | 17901 ft | 200 kts | 261° |
| 2026-05-05 00:30 | 29.37160 | 90.81571 | 17234 ft | 199 kts | 258° |
| 2026-05-05 00:31 | 29.36917 | 90.80008 | 16572 ft | 199 kts | 256° |
| 2026-05-05 00:31 | 29.36605 | 90.78464 | 15930 ft | 199 kts | 253° |
| 2026-05-05 00:31 | 29.36111 | 90.76990 | 15328 ft | 197 kts | 237° |
| 2026-05-05 00:31 | 29.35173 | 90.75873 | 14737 ft | 195 kts | 213° |
| 2026-05-05 00:32 | 29.33965 | 90.75295 | 14475 ft | 180 kts | 191° |
| 2026-05-05 00:32 | 29.32758 | 90.75258 | 14316 ft | 169 kts | 170° |
| 2026-05-05 00:32 | 29.31667 | 90.75689 | 14110 ft | 165 kts | 149° |
| 2026-05-05 00:32 | 29.30782 | 90.76510 | 13865 ft | 163 kts | 130° |
| 2026-05-05 00:33 | 29.30196 | 90.77605 | 13629 ft | 162 kts | 112° |
| 2026-05-05 00:33 | 29.29767 | 90.78792 | 13409 ft | 160 kts | 111° |
| 2026-05-05 00:33 | 29.29524 | 90.80030 | 13230 ft | 160 kts | 93° |
| 2026-05-05 00:33 | 29.29578 | 90.81290 | 13066 ft | 161 kts | 85° |
| 2026-05-05 00:34 | 29.29656 | 90.82577 | 12732 ft | 159 kts | 88° |
| 2026-05-05 00:34 | 29.29688 | 90.83834 | 12525 ft | 158 kts | 90° |
| 2026-05-05 00:34 | 29.29710 | 90.85073 | 12345 ft | 157 kts | 90° |
| 2026-05-05 00:34 | 29.29728 | 90.86328 | 12168 ft | 158 kts | 90° |
| 2026-05-05 00:35 | 29.29747 | 90.87575 | 11899 ft | 156 kts | 90° |
| 2026-05-05 00:35 | 29.29769 | 90.88807 | 11685 ft | 155 kts | 90° |
| 2026-05-05 00:35 | 29.29789 | 90.90026 | 11586 ft | 147 kts | 90° |
| 2026-05-05 00:35 | 29.29805 | 90.91050 | 11577 ft | 105 kts | 89° |
| 2026-05-05 00:36 | 29.29814 | 90.91689 | 11580 ft | 55 kts | 89° |
| 2026-05-05 00:36 | 29.29795 | 90.92000 | 11581 ft | 33 kts | 109° |
| 2026-05-05 00:36 | 29.29716 | 90.92180 | 11565 ft | 20 kts | 139° |
| 2026-05-05 00:36 | 29.29659 | 90.92088 | 11578 ft | 17 kts | 269° |
| 2026-05-05 00:37 | 29.29657 | 90.91960 | 11579 ft | 16 kts | 269° |
| 2026-05-05 00:37 | 29.29654 | 90.91840 | 11578 ft | 14 kts | 268° |
| 2026-05-05 00:37 | 29.29653 | 90.91765 | 11572 ft | 14 kts | 269° |
| 2026-05-05 00:37 | 29.29652 | 90.91658 | 11571 ft | 13 kts | 269° |
| 2026-05-05 00:38 | 29.29650 | 90.91540 | 11567 ft | 16 kts | 269° |
| 2026-05-05 00:38 | 29.29647 | 90.91396 | 11576 ft | 20 kts | 269° |
| 2026-05-05 00:38 | 29.29646 | 90.91226 | 11575 ft | 23 kts | 269° |
| 2026-05-05 00:38 | 29.29642 | 90.91032 | 11577 ft | 26 kts | 269° |
| 2026-05-05 00:39 | 29.29640 | 90.90813 | 11577 ft | 29 kts | 269° |
| 2026-05-05 00:39 | 29.29637 | 90.90574 | 11578 ft | 31 kts | 269° |
| 2026-05-05 00:39 | 29.29632 | 90.90331 | 11582 ft | 30 kts | 269° |
| 2026-05-05 00:39 | 29.29629 | 90.90106 | 11580 ft | 22 kts | 269° |
| 2026-05-05 00:40 | 29.29581 | 90.90013 | 11575 ft | 14 kts | 186° |
| 2026-05-05 00:40 | 29.29525 | 90.89954 | 11577 ft | 12 kts | 269° |
| 2026-05-05 00:40 | 29.29513 | 90.89873 | 11569 ft | 10 kts | 229° |
| 2026-05-05 00:40 | 29.29458 | 90.89863 | 11572 ft | 5 kts | 180° |
| 2026-05-05 00:41 | 29.29438 | 90.89865 | 11569 ft | 1 kts | 171° |
| 2026-05-05 00:41 | 29.29437 | 90.89865 | 11569 ft | 0 kts | 171° |